Indian Rock, Texas
Current Conditions -  °F | °C
As of 6:35 AM on Thursday 23 Oct 2014 (Local Time) from KOSA Reporting Station
Clear Clear  
Wind Chill: 56°   Ceiling: Unl
Heat Index: 56°   Visibility: 10mi
Dew Point: 52°   Wind: 3mph
Humidity: 88%   Direction: 30°NNE
Pressure: 30.17"   Gusts: NA
Location:  32.7353°N, 94.9492°W
Report Text: KOSA 231135Z AUTO 03003KT 10SM CLR 13/11 A3017 RMK AO1 T01320113
Loading
Personal Weather Stations






























Interactive Weather Map
Tropical Storm Tracking
New forecast layout! Learn more

10-Day Weather Forecast

Advertisements
Track Severe Weather on mobile